createdAt,value
2023-02-03T00:00:41.876Z,23.93
2023-02-03T00:01:41.937Z,23.93
2023-02-03T00:02:41.913Z,23.93
2023-02-03T00:03:41.859Z,23.95
2023-02-03T00:04:41.847Z,23.96
2023-02-03T00:05:41.829Z,23.95
2023-02-03T00:06:41.817Z,23.97
2023-02-03T00:07:41.813Z,23.97
2023-02-03T00:08:41.791Z,23.96
2023-02-03T00:09:41.767Z,23.97
2023-02-03T00:10:41.749Z,23.96
2023-02-03T00:11:41.741Z,23.97
2023-02-03T00:12:41.743Z,23.95
2023-02-03T00:13:41.725Z,23.95
2023-02-03T00:14:41.699Z,23.93
2023-02-03T00:15:41.682Z,23.91
2023-02-03T00:16:41.688Z,23.95
2023-02-03T00:17:41.651Z,23.96
2023-02-03T00:18:41.632Z,23.95
2023-02-03T00:19:41.621Z,23.89
2023-02-03T00:20:41.615Z,23.87
2023-02-03T00:21:41.591Z,23.89
2023-02-03T00:22:41.588Z,23.90
2023-02-03T00:23:41.567Z,23.93
2023-02-03T00:24:41.547Z,23.96
2023-02-03T00:25:41.569Z,23.89
2023-02-03T00:26:41.519Z,23.95
2023-02-03T00:27:41.543Z,23.95
2023-02-03T00:28:41.510Z,23.93
2023-02-03T00:29:41.489Z,23.96
2023-02-03T00:30:41.481Z,23.97
2023-02-03T00:31:41.568Z,24.00
2023-02-03T00:32:41.483Z,24.00
2023-02-03T00:33:41.437Z,23.99
2023-02-03T00:34:41.425Z,23.96
2023-02-03T00:35:41.432Z,23.99
2023-02-03T00:36:42.971Z,23.96
2023-02-03T00:37:41.395Z,23.95
2023-02-03T00:38:41.389Z,23.93
2023-02-03T00:39:41.366Z,23.90
2023-02-03T00:40:41.358Z,23.91
2023-02-03T00:41:41.345Z,23.93
2023-02-03T00:42:41.330Z,23.91
2023-02-03T00:43:41.312Z,23.89
2023-02-03T00:44:41.312Z,23.90
2023-02-03T00:45:41.316Z,23.93
2023-02-03T00:46:41.297Z,23.90
2023-02-03T00:47:41.322Z,23.90
2023-02-03T00:48:41.289Z,23.86
2023-02-03T00:49:41.299Z,23.87
2023-02-03T00:50:41.278Z,23.90
2023-02-03T00:51:41.235Z,23.90
2023-02-03T00:52:41.259Z,23.87
2023-02-03T00:53:41.215Z,23.89
2023-02-03T00:54:41.195Z,23.93
2023-02-03T00:55:41.194Z,23.91
2023-02-03T00:56:41.188Z,23.90
2023-02-03T00:57:41.183Z,23.95
2023-02-03T00:58:41.148Z,23.93
2023-02-03T00:59:41.120Z,23.91
2023-02-03T01:00:41.118Z,23.91
2023-02-03T01:01:41.100Z,23.91
2023-02-03T01:02:41.096Z,23.90
2023-02-03T01:03:41.079Z,23.91
2023-02-03T01:04:41.056Z,23.89
2023-02-03T01:05:41.059Z,23.93
2023-02-03T01:06:41.042Z,23.91
2023-02-03T01:07:41.035Z,23.87
2023-02-03T01:08:41.026Z,23.90
2023-02-03T01:09:41.034Z,23.91
2023-02-03T01:10:41.007Z,23.89
2023-02-03T01:11:40.999Z,23.87
2023-02-03T01:12:40.993Z,23.87
2023-02-03T01:13:40.978Z,23.87
2023-02-03T01:14:40.972Z,23.90
2023-02-03T01:15:40.960Z,23.89
2023-02-03T01:16:41.036Z,23.91
2023-02-03T01:17:40.943Z,23.93
2023-02-03T01:18:40.960Z,23.90
2023-02-03T01:19:40.927Z,23.93
2023-02-03T01:20:40.926Z,23.90
2023-02-03T01:21:40.917Z,23.91
2023-02-03T01:22:40.932Z,23.89
2023-02-03T01:23:40.912Z,23.90
2023-02-03T01:24:40.895Z,23.91
2023-02-03T01:25:40.918Z,23.89
2023-02-03T01:26:40.890Z,23.87
2023-02-03T01:27:40.904Z,23.89
2023-02-03T01:28:40.856Z,23.87
2023-02-03T01:29:40.857Z,23.89
2023-02-03T01:30:40.999Z,23.91
2023-02-03T01:31:41.038Z,23.91
2023-02-03T01:32:40.844Z,23.89
2023-02-03T01:33:40.829Z,23.87
2023-02-03T01:34:40.819Z,23.87
2023-02-03T01:35:40.821Z,23.87
2023-02-03T01:36:40.802Z,23.86
2023-02-03T01:37:40.791Z,23.84
2023-02-03T01:38:40.787Z,23.87
2023-02-03T01:39:40.797Z,23.90
2023-02-03T01:40:40.774Z,23.86
2023-02-03T01:41:40.781Z,23.86
2023-02-03T01:42:40.772Z,23.81
2023-02-03T01:43:40.791Z,23.83
2023-02-03T01:44:40.759Z,23.84
2023-02-03T01:45:40.735Z,23.83
2023-02-03T01:46:40.728Z,23.84
2023-02-03T01:48:40.722Z,23.80
2023-02-03T01:49:40.699Z,23.87
2023-02-03T01:50:40.686Z,23.84
2023-02-03T01:51:40.669Z,23.87
2023-02-03T01:52:40.664Z,23.90
2023-02-03T01:53:40.662Z,23.93
2023-02-03T01:54:40.658Z,23.91
2023-02-03T01:55:40.637Z,23.91
2023-02-03T01:56:40.654Z,23.93
2023-02-03T01:57:40.630Z,23.91
2023-02-03T01:58:40.631Z,23.90
2023-02-03T01:59:40.612Z,23.96
2023-02-03T02:00:40.609Z,23.95
2023-02-03T02:01:40.636Z,23.93
2023-02-03T02:02:40.670Z,23.95
2023-02-03T02:03:40.592Z,23.95
2023-02-03T02:04:40.586Z,23.95
2023-02-03T02:05:40.583Z,23.97
2023-02-03T02:06:40.577Z,23.96
2023-02-03T02:07:40.563Z,23.96
2023-02-03T02:08:40.558Z,23.97
2023-02-03T02:09:40.549Z,23.96
2023-02-03T02:10:40.535Z,23.99
2023-02-03T02:11:40.532Z,23.93
2023-02-03T02:12:40.513Z,23.90
2023-02-03T02:13:40.519Z,23.89
2023-02-03T02:14:40.507Z,23.89
2023-02-03T02:15:40.509Z,23.89
2023-02-03T02:16:40.492Z,23.87
2023-02-03T02:17:40.472Z,23.87
2023-02-03T02:18:40.511Z,23.83
2023-02-03T02:19:40.459Z,23.83
2023-02-03T02:20:40.445Z,23.83
2023-02-03T02:21:40.442Z,23.80
2023-02-03T02:22:40.431Z,23.80
2023-02-03T02:23:40.421Z,23.84
2023-02-03T02:24:40.412Z,23.86
2023-02-03T02:25:40.417Z,23.81
2023-02-03T02:26:40.398Z,23.87
2023-02-03T02:27:40.420Z,23.84
2023-02-03T02:28:40.387Z,23.84
2023-02-03T02:29:40.391Z,23.81
2023-02-03T02:30:40.454Z,23.80
2023-02-03T02:31:40.404Z,23.79
2023-02-03T02:32:40.355Z,23.77
2023-02-03T02:33:40.341Z,23.74
2023-02-03T02:34:40.324Z,23.73
2023-02-03T02:35:40.312Z,23.79
2023-02-03T02:36:40.300Z,23.76
2023-02-03T02:37:40.305Z,23.77
2023-02-03T02:38:40.279Z,23.79
2023-02-03T02:39:40.279Z,23.79
2023-02-03T02:40:40.254Z,23.79
2023-02-03T02:41:40.231Z,23.80
2023-02-03T02:42:40.232Z,23.83
2023-02-03T02:43:40.202Z,23.83
2023-02-03T02:44:40.183Z,23.81
2023-02-03T02:45:40.169Z,23.77
2023-02-03T02:46:40.177Z,23.84
2023-02-03T02:47:40.142Z,23.83
2023-02-03T02:48:40.131Z,23.89
2023-02-03T02:49:40.123Z,23.89
2023-02-03T02:50:40.100Z,23.90
2023-02-03T02:51:40.087Z,23.86
2023-02-03T02:52:40.084Z,23.87
2023-02-03T02:53:40.083Z,23.86
2023-02-03T02:54:40.086Z,23.84
2023-02-03T02:55:40.070Z,23.77
2023-02-03T02:56:40.064Z,23.81
2023-02-03T02:57:40.054Z,23.84
2023-02-03T02:58:40.022Z,23.81
2023-02-03T02:59:40.020Z,23.79
2023-02-03T03:00:39.992Z,23.79
2023-02-03T03:01:39.999Z,23.79
2023-02-03T03:02:39.967Z,23.80
2023-02-03T03:03:39.955Z,23.76
2023-02-03T03:04:39.965Z,23.76
2023-02-03T03:05:39.933Z,23.81
2023-02-03T03:06:39.902Z,23.81
2023-02-03T03:07:39.888Z,23.80
2023-02-03T03:08:39.863Z,23.84
2023-02-03T03:09:39.855Z,23.81
2023-02-03T03:10:39.869Z,23.80
2023-02-03T03:11:39.846Z,23.79
2023-02-03T03:12:39.811Z,23.79
2023-02-03T03:13:39.803Z,23.81
2023-02-03T03:14:39.786Z,23.84
2023-02-03T03:15:39.797Z,23.83
2023-02-03T03:16:39.764Z,23.84
2023-02-03T03:17:39.738Z,23.87
2023-02-03T03:18:39.713Z,23.87
2023-02-03T03:19:39.712Z,23.86
2023-02-03T03:20:39.691Z,23.89
2023-02-03T03:21:39.660Z,23.89
2023-02-03T03:22:39.644Z,23.91
2023-02-03T03:23:39.835Z,23.89
2023-02-03T03:24:40.073Z,23.87
2023-02-03T03:25:39.613Z,23.91
2023-02-03T03:26:39.605Z,23.90
2023-02-03T03:27:39.649Z,23.89
2023-02-03T03:28:39.563Z,23.87
2023-02-03T03:29:39.576Z,23.89
2023-02-03T03:30:39.576Z,23.86
2023-02-03T03:31:39.685Z,23.84
2023-02-03T03:32:39.529Z,23.89
2023-02-03T03:33:39.532Z,23.86
2023-02-03T03:34:39.502Z,23.86
2023-02-03T03:35:39.503Z,23.87
2023-02-03T03:36:39.496Z,23.86
2023-02-03T03:37:39.483Z,23.81
2023-02-03T03:38:39.478Z,23.81
2023-02-03T03:39:39.463Z,23.84
2023-02-03T03:40:39.447Z,23.83
2023-02-03T03:41:39.440Z,23.83
2023-02-03T03:42:39.406Z,23.86
2023-02-03T03:43:39.405Z,23.87
2023-02-03T03:44:39.386Z,23.87
2023-02-03T03:45:39.414Z,23.90
2023-02-03T03:46:39.446Z,23.87
2023-02-03T03:47:39.350Z,23.84
2023-02-03T03:48:39.351Z,23.83
2023-02-03T03:49:39.380Z,23.84
2023-02-03T03:50:39.355Z,23.87
2023-02-03T03:51:39.313Z,23.86
2023-02-03T03:52:39.290Z,23.81
2023-02-03T03:53:39.273Z,23.83
2023-02-03T03:54:39.254Z,23.83
2023-02-03T03:55:39.243Z,23.79
2023-02-03T03:56:39.224Z,23.81
2023-02-03T03:57:39.202Z,23.81
2023-02-03T03:58:39.173Z,23.84
2023-02-03T03:59:39.160Z,23.87
2023-02-03T04:00:39.175Z,23.90
2023-02-03T04:01:39.333Z,23.87
2023-02-03T04:02:39.212Z,23.91
2023-02-03T04:03:39.105Z,23.93
2023-02-03T04:04:39.072Z,23.91
2023-02-03T04:05:39.066Z,23.87
2023-02-03T04:06:39.033Z,23.89
2023-02-03T04:07:39.031Z,23.87
2023-02-03T04:08:39.006Z,23.90
2023-02-03T04:09:39.005Z,23.90
2023-02-03T04:10:39.004Z,23.90
2023-02-03T04:11:38.975Z,23.89
2023-02-03T04:12:38.966Z,23.90
2023-02-03T04:13:38.957Z,23.87
2023-02-03T04:14:39.133Z,23.87
2023-02-03T04:15:38.919Z,23.90
2023-02-03T04:16:38.909Z,23.91
2023-02-03T04:17:38.894Z,23.90
2023-02-03T04:18:38.878Z,23.89
2023-02-03T04:19:38.869Z,23.90
2023-02-03T04:20:38.854Z,23.93
2023-02-03T04:21:38.837Z,23.91
2023-02-03T04:22:38.826Z,23.91
2023-02-03T04:23:38.811Z,23.90
2023-02-03T04:24:38.796Z,23.86
2023-02-03T04:25:38.773Z,23.84
2023-02-03T04:26:38.760Z,23.84
2023-02-03T04:27:38.753Z,23.81
2023-02-03T04:28:38.727Z,23.81
2023-02-03T04:29:38.721Z,23.83
2023-02-03T04:30:38.711Z,23.84
2023-02-03T04:31:38.726Z,23.84
2023-02-03T04:32:38.680Z,23.83
2023-02-03T04:33:38.665Z,23.86
2023-02-03T04:34:38.649Z,23.87
2023-02-03T04:35:38.648Z,23.86
2023-02-03T04:36:38.625Z,23.84
2023-02-03T04:37:38.600Z,23.83
2023-02-03T04:38:38.591Z,23.86
2023-02-03T04:39:38.573Z,23.87
2023-02-03T04:40:38.556Z,23.81
2023-02-03T04:41:38.560Z,23.86
2023-02-03T04:42:38.526Z,23.87
2023-02-03T04:43:38.506Z,23.84
2023-02-03T04:44:38.516Z,23.84
2023-02-03T04:45:38.516Z,23.83
2023-02-03T04:46:38.483Z,23.83
2023-02-03T04:47:38.466Z,23.83
2023-02-03T04:48:38.454Z,23.80
2023-02-03T04:49:38.467Z,23.81
2023-02-03T04:50:38.424Z,23.81
2023-02-03T04:51:38.437Z,23.81
2023-02-03T04:52:38.403Z,23.83
2023-02-03T04:53:38.393Z,23.87
2023-02-03T04:54:38.371Z,23.81
2023-02-03T04:55:38.360Z,23.86
2023-02-03T04:56:38.348Z,23.90
2023-02-03T04:57:38.329Z,23.90
2023-02-03T04:58:38.319Z,23.89
2023-02-03T04:59:38.298Z,23.90
2023-02-03T05:00:38.314Z,23.91
2023-02-03T05:01:38.284Z,23.90
2023-02-03T05:02:38.271Z,23.90
2023-02-03T05:03:38.310Z,23.91
2023-02-03T05:04:38.237Z,23.91
2023-02-03T05:05:38.234Z,23.89
2023-02-03T05:06:38.314Z,23.91
2023-02-03T05:07:38.207Z,23.87
2023-02-03T05:08:38.188Z,23.86
2023-02-03T05:09:38.194Z,23.87
2023-02-03T05:10:38.178Z,23.84
2023-02-03T05:11:38.160Z,23.84
2023-02-03T05:12:38.172Z,23.89
2023-02-03T05:13:38.146Z,23.89
2023-02-03T05:14:38.140Z,23.87
2023-02-03T05:15:38.127Z,23.86
2023-02-03T05:16:38.174Z,23.86
2023-02-03T05:17:38.121Z,23.89
2023-02-03T05:18:38.089Z,23.89
2023-02-03T05:19:38.093Z,23.91
2023-02-03T05:20:38.088Z,23.89
2023-02-03T05:21:38.062Z,23.90
2023-02-03T05:22:38.060Z,23.86
2023-02-03T05:23:38.037Z,23.84
2023-02-03T05:24:38.034Z,23.90
2023-02-03T05:25:38.010Z,23.91
2023-02-03T05:26:38.002Z,23.93
2023-02-03T05:27:38.055Z,23.95
2023-02-03T05:28:38.004Z,23.96
2023-02-03T05:29:37.971Z,23.93
2023-02-03T05:30:37.998Z,23.97
2023-02-03T05:31:37.983Z,23.96
2023-02-03T05:32:37.936Z,23.99
2023-02-03T05:33:37.924Z,23.97
2023-02-03T05:34:37.914Z,23.93
2023-02-03T05:35:37.886Z,23.96
2023-02-03T05:36:37.876Z,23.96
2023-02-03T05:37:37.856Z,23.93
2023-02-03T05:38:37.847Z,23.93
2023-02-03T05:39:37.827Z,23.91
2023-02-03T05:40:37.813Z,23.93
2023-02-03T05:41:37.824Z,23.93
2023-02-03T05:42:37.784Z,23.89
2023-02-03T05:43:37.778Z,23.91
2023-02-03T05:44:37.768Z,23.95
2023-02-03T05:45:37.802Z,23.90
2023-02-03T05:46:37.722Z,23.93
2023-02-03T05:47:37.726Z,23.91
2023-02-03T05:48:37.690Z,23.87
2023-02-03T05:49:37.660Z,23.90
2023-02-03T05:50:38.824Z,23.95
2023-02-03T05:51:37.627Z,23.95
2023-02-03T05:52:37.636Z,23.91
2023-02-03T05:53:37.593Z,23.90
2023-02-03T05:54:37.565Z,23.91
2023-02-03T05:55:37.570Z,23.95
2023-02-03T05:56:37.544Z,23.95
2023-02-03T05:57:37.511Z,23.93
2023-02-03T05:58:37.504Z,23.93
2023-02-03T05:59:37.473Z,23.99
2023-02-03T06:00:37.465Z,23.97
2023-02-03T06:01:37.442Z,23.99
2023-02-03T06:02:37.439Z,24.01
2023-02-03T06:03:37.467Z,24.01
2023-02-03T06:04:37.438Z,23.97
2023-02-03T06:05:37.411Z,23.96
2023-02-03T06:06:37.414Z,23.93
2023-02-03T06:07:37.382Z,23.96
2023-02-03T06:08:37.368Z,23.91
2023-02-03T06:09:37.369Z,23.93
2023-02-03T06:10:37.351Z,23.95
2023-02-03T06:11:37.325Z,23.96
2023-02-03T06:12:37.332Z,23.93
2023-02-03T06:13:37.311Z,23.97
2023-02-03T06:14:37.314Z,23.93
2023-02-03T06:15:37.299Z,23.96
2023-02-03T06:16:37.337Z,23.96
2023-02-03T06:17:37.295Z,23.97
2023-02-03T06:18:37.269Z,23.97
2023-02-03T06:19:37.266Z,23.97
2023-02-03T06:20:37.266Z,23.99
2023-02-03T06:21:37.242Z,23.93
2023-02-03T06:22:37.251Z,23.96
2023-02-03T06:23:37.237Z,23.95
2023-02-03T06:24:37.230Z,23.97
2023-02-03T06:25:37.213Z,23.95
2023-02-03T06:26:37.204Z,23.95
2023-02-03T06:27:37.269Z,23.95
2023-02-03T06:28:37.248Z,23.91
2023-02-03T06:29:37.186Z,23.95
2023-02-03T06:30:37.247Z,23.95
2023-02-03T06:31:37.410Z,23.93
2023-02-03T06:32:37.155Z,23.90
2023-02-03T06:33:37.144Z,23.95
2023-02-03T06:34:37.136Z,23.95
2023-02-03T06:35:37.112Z,23.93
2023-02-03T06:36:37.109Z,23.93
2023-02-03T06:37:37.093Z,23.96
2023-02-03T06:38:37.100Z,24.01
2023-02-03T06:39:37.085Z,24.10
2023-02-03T06:40:37.081Z,24.18
2023-02-03T06:41:37.061Z,24.28
2023-02-03T06:42:37.064Z,24.35
2023-02-03T06:43:37.037Z,24.41
2023-02-03T06:44:37.018Z,24.48
2023-02-03T06:45:37.000Z,24.58
2023-02-03T06:46:37.041Z,24.64
2023-02-03T06:47:36.969Z,24.69
2023-02-03T06:48:36.947Z,24.78
2023-02-03T06:49:36.939Z,24.81
2023-02-03T06:50:36.926Z,24.81
2023-02-03T06:51:36.903Z,24.77
2023-02-03T06:52:36.899Z,24.85
2023-02-03T06:53:36.879Z,24.85
2023-02-03T06:54:36.847Z,24.86
2023-02-03T06:55:36.844Z,24.89
2023-02-03T06:56:36.840Z,24.93
2023-02-03T06:57:36.802Z,24.93
2023-02-03T06:58:36.803Z,24.96
2023-02-03T06:59:36.755Z,24.92
2023-02-03T07:00:36.776Z,24.95
2023-02-03T07:01:36.794Z,24.95
2023-02-03T07:02:36.757Z,24.93
2023-02-03T07:03:36.699Z,24.99
2023-02-03T07:04:36.696Z,25.02
2023-02-03T07:05:36.661Z,25.02
2023-02-03T07:06:36.648Z,25.05
2023-02-03T07:07:36.735Z,25.05
2023-02-03T07:08:36.598Z,25.06
2023-02-03T07:09:36.597Z,25.10
2023-02-03T07:10:36.568Z,25.12
2023-02-03T07:11:36.545Z,25.13
2023-02-03T07:12:36.678Z,25.16
2023-02-03T07:13:36.505Z,25.13
2023-02-03T07:14:36.473Z,25.15
2023-02-03T07:15:36.483Z,25.13
2023-02-03T07:16:36.446Z,25.13
2023-02-03T07:17:36.422Z,25.15
2023-02-03T07:18:46.817Z,25.13
2023-02-03T07:19:37.384Z,25.15
2023-02-03T07:20:36.355Z,25.12
2023-02-03T07:21:36.334Z,25.13
2023-02-03T07:22:36.308Z,25.15
2023-02-03T07:23:36.302Z,25.16
2023-02-03T07:24:36.279Z,25.19
2023-02-03T07:25:36.252Z,25.18
2023-02-03T07:26:36.214Z,25.22
2023-02-03T07:27:36.282Z,25.23
2023-02-03T07:28:36.170Z,25.26
2023-02-03T07:29:36.148Z,25.30
2023-02-03T07:30:36.128Z,25.33
2023-02-03T07:31:36.184Z,25.34
2023-02-03T07:32:36.051Z,25.37
2023-02-03T07:33:36.030Z,25.43
2023-02-03T07:34:36.071Z,25.46
2023-02-03T07:35:35.969Z,25.49
2023-02-03T07:36:35.939Z,25.49
2023-02-03T07:37:35.908Z,25.51
2023-02-03T07:38:35.921Z,25.53
2023-02-03T07:39:35.854Z,25.54
2023-02-03T07:40:35.797Z,25.53
2023-02-03T07:41:35.781Z,25.54
2023-02-03T07:42:35.749Z,25.49
2023-02-03T07:43:35.707Z,25.50
2023-02-03T07:44:35.679Z,25.50
2023-02-03T07:45:35.647Z,25.51
2023-02-03T07:46:35.644Z,25.49
2023-02-03T07:47:35.602Z,25.51
2023-02-03T07:48:35.587Z,25.51
2023-02-03T07:49:35.552Z,25.51
2023-02-03T07:50:35.521Z,25.51
2023-02-03T07:51:35.489Z,25.51
2023-02-03T07:52:35.471Z,25.53
2023-02-03T07:53:35.429Z,25.50
2023-02-03T07:54:35.427Z,25.53
2023-02-03T07:55:35.388Z,25.53
2023-02-03T07:56:35.353Z,25.50
2023-02-03T07:57:35.373Z,25.50
2023-02-03T07:58:35.292Z,25.50
2023-02-03T07:59:35.280Z,25.49
2023-02-03T08:00:35.259Z,25.51
2023-02-03T08:01:35.257Z,25.49
2023-02-03T08:02:35.209Z,25.49
2023-02-03T08:03:35.182Z,25.49
2023-02-03T08:04:35.188Z,25.50
2023-02-03T08:05:35.152Z,25.49
2023-02-03T08:06:35.114Z,25.44
2023-02-03T08:07:35.126Z,25.44
2023-02-03T08:08:35.065Z,25.46
2023-02-03T08:09:35.053Z,25.43
2023-02-03T08:10:35.040Z,25.44
2023-02-03T08:11:35.037Z,25.46
2023-02-03T08:12:35.001Z,25.44
2023-02-03T08:13:34.970Z,25.44
2023-02-03T08:14:34.941Z,25.44
2023-02-03T08:15:34.909Z,25.43
2023-02-03T08:16:34.940Z,25.44
2023-02-03T08:17:34.879Z,25.43
2023-02-03T08:18:34.857Z,25.43
2023-02-03T08:19:34.817Z,25.41
2023-02-03T08:20:34.805Z,25.41
2023-02-03T08:21:34.774Z,25.41
2023-02-03T08:22:34.786Z,25.37
2023-02-03T08:23:34.709Z,25.39
2023-02-03T08:24:34.715Z,25.37
2023-02-03T08:25:34.705Z,25.36
2023-02-03T08:26:34.651Z,25.36
2023-02-03T08:27:34.640Z,25.36
2023-02-03T08:28:34.562Z,25.34
2023-02-03T08:29:34.555Z,25.33
2023-02-03T08:30:34.524Z,25.32
2023-02-03T08:31:34.659Z,25.33
2023-02-03T08:32:34.486Z,25.36
2023-02-03T08:33:34.482Z,25.32
2023-02-03T08:34:34.428Z,25.26
2023-02-03T08:35:34.414Z,25.10
2023-02-03T08:36:34.361Z,25.10
2023-02-03T08:37:34.356Z,25.06
2023-02-03T08:38:34.332Z,25.10
2023-02-03T08:39:34.331Z,25.06
2023-02-03T08:40:34.299Z,25.10
2023-02-03T08:41:34.308Z,25.06
2023-02-03T08:42:34.272Z,24.98
2023-02-03T08:43:34.260Z,24.88
2023-02-03T08:44:34.244Z,24.72
2023-02-03T08:45:34.291Z,24.59
2023-02-03T08:46:34.230Z,24.44
2023-02-03T08:47:34.220Z,24.35
2023-02-03T08:48:34.218Z,24.27
2023-02-03T08:49:34.211Z,24.18
2023-02-03T08:50:34.222Z,24.09
2023-02-03T08:51:34.206Z,24.01
2023-02-03T08:52:34.227Z,23.89
2023-02-03T08:53:34.212Z,23.79
2023-02-03T08:54:34.205Z,23.68
2023-02-03T08:55:34.204Z,23.56
2023-02-03T08:56:34.236Z,23.49
2023-02-03T08:57:34.206Z,23.46
2023-02-03T08:58:34.194Z,23.39
2023-02-03T08:59:34.194Z,23.35
2023-02-03T09:00:34.219Z,23.28
2023-02-03T09:01:34.199Z,23.17
2023-02-03T09:02:34.211Z,23.11
2023-02-03T09:03:34.223Z,23.07
2023-02-03T09:04:34.261Z,23.04
2023-02-03T09:05:34.266Z,23.01
2023-02-03T09:06:34.237Z,23.04
2023-02-03T09:07:34.238Z,23.02
2023-02-03T09:08:34.233Z,23.04
2023-02-03T09:09:34.241Z,22.99
2023-02-03T09:10:34.249Z,23.02
2023-02-03T09:11:34.251Z,22.99
2023-02-03T09:12:34.277Z,22.95
2023-02-03T09:13:34.280Z,22.88
2023-02-03T09:14:34.277Z,22.84
2023-02-03T09:15:34.288Z,22.81
2023-02-03T09:16:34.329Z,22.75
2023-02-03T09:17:34.296Z,22.67
2023-02-03T09:18:34.305Z,22.61
2023-02-03T09:19:36.172Z,22.58
2023-02-03T09:20:34.327Z,22.56
2023-02-03T09:21:41.992Z,22.54
2023-02-03T09:22:35.353Z,22.46
2023-02-03T09:23:34.367Z,22.50
2023-02-03T09:24:34.378Z,22.48
2023-02-03T09:25:34.453Z,22.47
2023-02-03T09:26:34.366Z,22.56
2023-02-03T09:27:34.379Z,22.50
2023-02-03T09:28:34.387Z,22.50
2023-02-03T09:29:34.376Z,22.56
2023-02-03T09:30:34.479Z,22.63
2023-02-03T09:31:34.401Z,22.67
2023-02-03T09:32:34.383Z,22.75
2023-02-03T09:33:34.391Z,22.81
2023-02-03T09:34:34.397Z,22.93
2023-02-03T09:35:34.819Z,23.04
2023-02-03T09:36:34.459Z,23.14
2023-02-03T09:37:34.404Z,23.23
2023-02-03T09:38:34.362Z,23.32
2023-02-03T09:39:34.354Z,23.42
2023-02-03T09:40:34.351Z,23.53
2023-02-03T09:41:34.358Z,23.65
2023-02-03T09:42:34.454Z,23.69
2023-02-03T09:43:34.295Z,23.69
2023-02-03T09:44:34.267Z,23.77
2023-02-03T09:45:34.297Z,23.84
2023-02-03T09:46:34.243Z,23.91
2023-02-03T09:47:34.239Z,23.91
2023-02-03T09:48:34.228Z,24.00
2023-02-03T09:49:34.212Z,23.93
2023-02-03T09:50:34.205Z,23.96
2023-02-03T09:51:34.178Z,24.06
2023-02-03T09:52:34.153Z,24.09
2023-02-03T09:53:34.135Z,24.13
2023-02-03T09:54:34.117Z,24.17
2023-02-03T09:55:34.108Z,24.23
2023-02-03T09:56:34.082Z,24.20
2023-02-03T09:57:34.050Z,24.23
2023-02-03T09:58:34.028Z,24.27
2023-02-03T09:59:34.013Z,24.27
2023-02-03T10:00:33.976Z,24.34
2023-02-03T10:01:34.010Z,24.34
2023-02-03T10:02:33.965Z,24.37
2023-02-03T10:03:33.979Z,24.38
2023-02-03T10:04:33.917Z,24.41
2023-02-03T10:05:33.896Z,24.42
2023-02-03T10:06:33.882Z,24.42
2023-02-03T10:07:33.846Z,24.47
2023-02-03T10:08:33.821Z,24.48
2023-02-03T10:09:33.815Z,24.50
2023-02-03T10:10:33.782Z,24.50
2023-02-03T10:11:33.784Z,24.59
2023-02-03T10:12:33.738Z,24.65
2023-02-03T10:13:33.728Z,24.75
2023-02-03T10:14:33.722Z,24.89
2023-02-03T10:15:33.688Z,24.96
2023-02-03T10:16:33.683Z,24.96
2023-02-03T10:17:33.709Z,24.99
2023-02-03T10:18:33.651Z,24.99
2023-02-03T10:19:33.740Z,24.99
2023-02-03T10:20:33.671Z,24.98
2023-02-03T10:21:33.830Z,24.98
2023-02-03T10:22:33.501Z,24.98
2023-02-03T10:23:33.482Z,25.00
2023-02-03T10:24:33.467Z,24.96
2023-02-03T10:25:33.440Z,24.95
2023-02-03T10:26:33.443Z,24.96
2023-02-03T10:27:33.393Z,24.99
2023-02-03T10:28:33.366Z,24.96
2023-02-03T10:29:33.356Z,24.99
2023-02-03T10:30:33.775Z,25.00
2023-02-03T10:31:33.451Z,25.02
2023-02-03T10:32:33.306Z,25.00
2023-02-03T10:33:33.280Z,25.02
2023-02-03T10:34:33.256Z,25.00
2023-02-03T10:35:33.228Z,25.00
2023-02-03T10:36:33.207Z,24.96
2023-02-03T10:37:33.187Z,24.95
2023-02-03T10:38:33.161Z,24.96
2023-02-03T10:39:33.141Z,24.96
2023-02-03T10:40:33.113Z,24.96
2023-02-03T10:41:33.093Z,24.92
2023-02-03T10:42:33.059Z,25.00
2023-02-03T10:43:33.038Z,24.93
2023-02-03T10:44:33.017Z,24.99
2023-02-03T10:45:32.996Z,25.02
2023-02-03T10:46:33.046Z,25.02
2023-02-03T10:47:32.961Z,25.03
2023-02-03T10:48:32.957Z,25.08
2023-02-03T10:49:32.909Z,25.02
2023-02-03T10:50:32.886Z,25.06
2023-02-03T10:51:32.870Z,25.08
2023-02-03T10:52:32.861Z,25.09
2023-02-03T10:53:32.828Z,25.15
2023-02-03T10:54:32.855Z,25.13
2023-02-03T10:55:32.808Z,25.13
2023-02-03T10:56:32.822Z,25.19
2023-02-03T10:57:32.756Z,25.20
2023-02-03T10:58:32.735Z,25.20
2023-02-03T10:59:32.742Z,25.20
2023-02-03T11:00:32.682Z,25.22
2023-02-03T11:01:32.716Z,25.19
2023-02-03T11:02:32.684Z,25.23
2023-02-03T11:03:32.648Z,25.19
2023-02-03T11:04:32.607Z,25.20
2023-02-03T11:05:32.590Z,25.20
2023-02-03T11:06:32.556Z,25.20
2023-02-03T11:07:32.541Z,25.20
2023-02-03T11:08:32.511Z,25.18
2023-02-03T11:09:32.497Z,25.19
2023-02-03T11:10:32.478Z,25.20
2023-02-03T11:11:32.455Z,25.19
2023-02-03T11:12:32.437Z,25.16
2023-02-03T11:13:32.416Z,25.18
2023-02-03T11:14:32.388Z,25.18
2023-02-03T11:15:32.507Z,25.19
2023-02-03T11:16:32.358Z,25.15
2023-02-03T11:17:32.325Z,25.19
2023-02-03T11:18:32.295Z,25.18
2023-02-03T11:19:32.271Z,25.16
2023-02-03T11:20:32.253Z,25.18
2023-02-03T11:21:32.226Z,25.16
2023-02-03T11:22:32.197Z,25.16
2023-02-03T11:23:32.167Z,25.16
2023-02-03T11:24:32.162Z,25.16
2023-02-03T11:25:32.128Z,25.20
2023-02-03T11:26:32.100Z,25.18
2023-02-03T11:27:32.076Z,25.16
2023-02-03T11:28:32.036Z,25.15
2023-02-03T11:29:32.016Z,25.15
2023-02-03T11:30:32.003Z,25.18
2023-02-03T11:31:32.324Z,25.13
2023-02-03T11:32:31.935Z,25.15
2023-02-03T11:33:31.910Z,25.15
2023-02-03T11:34:31.894Z,25.13
2023-02-03T11:35:32.011Z,25.15
2023-02-03T11:36:31.842Z,25.16
2023-02-03T11:37:31.794Z,25.16
2023-02-03T11:38:31.778Z,25.15
2023-02-03T11:39:31.736Z,25.12
2023-02-03T11:40:31.705Z,25.13
2023-02-03T11:41:31.673Z,25.13
2023-02-03T11:42:31.657Z,25.13
2023-02-03T11:43:31.629Z,25.13
2023-02-03T11:44:31.617Z,25.13
2023-02-03T11:45:31.579Z,25.13
2023-02-03T11:46:31.584Z,25.12
2023-02-03T11:47:31.616Z,25.09
2023-02-03T11:48:31.529Z,25.12
2023-02-03T11:49:31.486Z,25.10
2023-02-03T11:50:31.568Z,25.10
2023-02-03T11:51:31.428Z,25.13
2023-02-03T11:52:31.405Z,25.10
2023-02-03T11:53:31.397Z,25.08
2023-02-03T11:54:31.345Z,25.06
2023-02-03T11:55:31.327Z,25.10
2023-02-03T11:56:31.284Z,25.12
2023-02-03T11:57:31.322Z,25.09
2023-02-03T11:58:31.231Z,25.13
2023-02-03T11:59:31.197Z,25.12
2023-02-03T12:00:31.202Z,25.13
2023-02-03T12:01:31.140Z,25.13
2023-02-03T12:02:31.196Z,25.13
2023-02-03T12:03:31.101Z,25.15
2023-02-03T12:04:31.094Z,25.13
2023-02-03T12:05:31.260Z,25.15
2023-02-03T12:06:31.004Z,25.16
2023-02-03T12:07:30.975Z,25.16
2023-02-03T12:08:30.966Z,25.15
2023-02-03T12:09:30.937Z,25.15
2023-02-03T12:10:31.098Z,25.13
2023-02-03T12:11:30.876Z,25.15
2023-02-03T12:13:30.893Z,25.15
2023-02-03T12:22:30.568Z,25.10
2023-02-03T17:53:49.308Z,24.16
2023-02-03T17:54:49.283Z,24.17
2023-02-03T17:55:49.266Z,24.17
2023-02-03T17:56:49.242Z,24.14
2023-02-03T17:57:49.223Z,24.17
2023-02-03T17:58:49.209Z,24.16
2023-02-03T17:59:49.191Z,24.16
2023-02-03T18:00:49.192Z,24.16
2023-02-03T18:01:49.154Z,24.16
2023-02-03T18:02:49.128Z,24.16
2023-02-03T18:03:49.107Z,24.17
2023-02-03T18:04:49.093Z,24.16
2023-02-03T18:05:49.072Z,24.17
2023-02-03T18:06:49.065Z,24.17
2023-02-03T18:08:50.129Z,24.16
2023-02-03T18:09:49.017Z,24.18
2023-02-03T18:10:48.991Z,24.16
2023-02-03T18:11:48.971Z,24.14
2023-02-03T18:12:48.963Z,24.11
2023-02-03T18:13:48.937Z,24.14
2023-02-03T18:14:48.930Z,24.16
2023-02-03T18:15:48.896Z,24.13
2023-02-03T18:16:48.920Z,24.14
2023-02-03T18:17:48.868Z,24.13
2023-02-03T18:18:48.838Z,24.18
2023-02-03T18:19:54.846Z,24.14
2023-02-03T18:20:49.803Z,24.13
2023-02-03T18:21:48.768Z,24.11
2023-02-03T18:22:48.747Z,24.11
2023-02-03T18:23:48.730Z,24.13
2023-02-03T18:24:48.714Z,24.11
2023-02-03T18:25:48.676Z,24.11
2023-02-03T18:26:48.673Z,24.10
2023-02-03T18:27:48.632Z,24.11
2023-02-03T18:28:48.611Z,24.10
2023-02-03T18:29:48.594Z,24.07
2023-02-03T18:30:48.673Z,24.07
2023-02-03T18:31:48.596Z,24.09
2023-02-03T18:32:48.532Z,24.07
2023-02-03T18:33:48.521Z,24.07